Pagrindinis puslapis
METAR-TAF:

METAR-TAF

Oro uostai :

Rionė, Danija

platuma: 55-04N, ilguma: 014-45E, Aukštis: 16 m

Dabartinis oras

Ataskaita buvo paskelbta 13 minutes, ne 02:20 UTC
Vėjas 1 kt iš Rytų/Šiaurės Rytų
Temperatūra 14°C
Drėgmė 94%
Slėgis 1026 hPa
Matomumas: 0800 m
rūkas

METAR: EKRN 240220Z AUTO 07001KT 0800 R11/P1500N R29/P1500N FG NCD 14/13 Q1026

Laikas: 04:33 (02:33 UTC)

Prognozė

Ataskaita buvo paskelbta 9 valandos ir 6 minutes, ne 17:27 UTC
Prognozė galioja nuo 23 metu 18 UTC su 23 metu 22 UTC
Vėjas 5 kt iš Vakarų/Pietvakarių
Matomumas 10 km arba daugiau
nėra debesų žemiau 1500 m ir nėra kamuolinių lietaus debesų

TAF: EKRN 231727Z 2318/2322 25005KT CAVOK

Orai ataskaitas ir orų prognozės (METAR, TAF).

turimą stotys yra geltonos ir raudonos taškus žemėlapyje.

Perkelti pele per norėdami pamatyti stoties vardą.

Tada spustelėkite, norėdami matyti oro stebėjimo ir prognozės.

Norėdami pakeisti žemėlapį: spustelėkite ant žalios mygtukų su juodo kryžiaus žemyn,; žalią mygtuką su brūkšneliu, jei norite nutolinti; arba žalių rodyklių gretimoms žemėlapius.


METAR-TAF: